Spencer, Oklahoma
Current Conditions -  °F | °C
As of 7:27 AM on Tuesday 21 Oct 2014 (Local Time) from KTIK Reporting Station
Drizzle Drizzle  
Wind Chill: 59°   Ceiling: Unl
Heat Index: 59°   Visibility: 6mi
Dew Point: 57°   Wind: 6mph
Humidity: 94%   Direction: 170°S
Pressure: 30.08"   Gusts: NA
Location:  35.52°N, 97.38°W
Report Text: KTIK 211227Z AUTO 17005KT 6SM DZ BR CLR 15/14 A3008 RMK AO2
Loading
Personal Weather Stations






























Interactive Weather Map
Tropical Storm Tracking
New forecast layout! Learn more

10-Day Weather Forecast

Advertisements
Track Severe Weather on mobile